Terminal Aerodrome Forecast
Issued by NWS Houston/Galveston, TX

Home | Current Version | Previous Version | Text Only | Print | Product List | Glossary On
Versions: 1 2 3 4 5 6 7 8 9 10 11 12 13 14 15 16 17 18 19 20 21 22 23 24 25 26 27 28 29 30 31 32 33 34 35 36 37 38 39 40 41 42 43 44 45 46 47 48 49 50
969
FTUS44 KHGX 291725
TAFCLL
TAF
KCLL 291725Z 2918/3018 12008KT P6SM BKN170
     FM292000 12005KT P6SM FEW050 SCT250
     FM292100 15009KT P6SM SCT045 SCT150
     FM300000 17006KT P6SM SCT120 BKN200
     FM300900 19003KT P6SM MIFG SCT250
      TEMPO 3009/3012 5SM BR OVC012
     FM301500 13004KT P6SM FEW020 BKN200=

USA.gov is the U.S. government's official web portal to all federal, state and local government web resources and services.